Time;durP1;ratioP1;P1;durP2;ratioP2;P2;SDS_P1;SDS_P2;PMS_P1;PMS_P2;Temp;Humidity;BMP_temperature;BMP_pressure;BME280_temperature;BME280_humidity;BME280_pressure;Samples;Min_cycle;Max_cycle;Signal;HPM_P1;HPM_P2
2021/09/05 00:00:37;;;;;;;7.65;4.55;;;;;;;6.53;77.36;99957.88;1707958;82;21106;-68
2021/09/05 00:03:04;;;;;;;8.08;4.50;;;;;;;6.50;77.21;99961.90;1715149;82;21053;-68
2021/09/05 00:05:30;;;;;;;10.50;4.47;;;;;;;6.43;77.26;99958.51;1730071;81;21105;-68
2021/09/05 00:07:58;;;;;;;8.85;5.03;;;;;;;6.37;77.28;99958.95;1682704;83;21003;-68
2021/09/05 00:10:24;;;;;;;;;;;;;;;6.38;77.18;99965.15;1705086;83;21846;-68
2021/09/05 00:12:52;;;;;;;9.48;4.85;;;;;;;6.39;77.08;99968.16;1691529;83;20145;-67
2021/09/05 00:15:20;;;;;;;9.53;4.62;;;;;;;6.32;77.22;99972.34;1727262;81;21055;-67
2021/09/05 00:17:47;;;;;;;8.98;4.37;;;;;;;6.26;77.48;99968.42;1732796;83;20995;-67
2021/09/05 00:20:15;;;;;;;8.03;4.40;;;;;;;6.19;77.63;99971.78;1719593;83;21031;-67
2021/09/05 00:22:44;;;;;;;6.97;4.28;;;;;;;6.14;77.64;99975.19;1708687;83;21038;-67
2021/09/05 00:25:11;;;;;;;8.15;4.33;;;;;;;6.13;77.75;99973.54;1716165;81;21087;-67
2021/09/05 00:27:38;;;;;;;8.15;4.08;;;;;;;6.13;77.78;99969.48;1718679;82;21039;-67
2021/09/05 00:30:08;;;;;;;8.03;4.12;;;;;;;6.13;77.84;99971.39;1716322;83;21545;-67
2021/09/05 00:32:34;;;;;;;8.93;4.42;;;;;;;6.12;77.93;99975.97;1709738;82;20992;-67
2021/09/05 00:35:00;;;;;;;7.70;3.92;;;;;;;6.07;78.09;99975.84;1718163;83;21514;-67
2021/09/05 00:37:27;;;;;;;8.63;4.15;;;;;;;6.00;78.21;99981.38;1717553;83;21031;-67
2021/09/05 00:39:54;;;;;;;6.80;3.87;;;;;;;5.96;78.26;99986.13;1705755;83;21058;-66
2021/09/05 00:42:27;;;;;;;6.47;3.98;;;;;;;5.94;78.14;99985.56;1699519;83;21020;-67
2021/09/05 00:44:54;;;;;;;11.68;3.98;;;;;;;5.91;78.08;99992.27;1731333;82;21004;-67
2021/09/05 00:47:21;;;;;;;7.55;3.35;;;;;;;5.87;78.11;99999.19;1715996;81;21043;-67
2021/09/05 00:49:48;;;;;;;7.95;3.72;;;;;;;5.87;78.11;99989.73;1708687;83;20952;-67
2021/09/05 00:52:15;;;;;;;8.45;4.50;;;;;;;5.84;78.12;99989.34;1727365;81;21562;-67
2021/09/05 00:54:43;;;;;;;9.13;4.03;;;;;;;5.84;78.12;99990.70;1705546;83;20983;-67
2021/09/05 00:57:15;;;;;;;8.65;4.85;;;;;;;5.79;78.24;99990.56;1701438;82;21099;-67
2021/09/05 00:59:48;;;;;;;7.12;3.92;;;;;;;5.73;78.42;99992.86;1692880;83;20961;-67
2021/09/05 01:02:14;;;;;;;9.60;4.70;;;;;;;5.74;78.46;99998.56;1708363;82;21108;-66
2021/09/05 01:04:42;;;;;;;8.10;4.20;;;;;;;5.74;78.39;99999.36;1700275;83;20992;-67
2021/09/05 01:07:08;;;;;;;9.28;4.55;;;;;;;5.74;78.39;99996.66;1719383;81;21075;-67
2021/09/05 01:09:35;;;;;;;7.47;4.20;;;;;;;5.75;78.45;99998.84;1718303;83;20989;-67
2021/09/05 01:12:04;;;;;;;8.55;4.95;;;;;;;5.75;78.45;99998.31;1714804;82;21578;-67
2021/09/05 01:14:31;;;;;;;7.50;4.05;;;;;;;5.75;78.50;100000.19;1683629;83;21478;-67
2021/09/05 01:16:58;;;;;;;8.00;4.47;;;;;;;5.73;78.50;99999.09;1701524;82;21059;-67
2021/09/05 01:19:43;;;;;;;10.40;4.42;;;;;;;5.72;78.53;100000.66;1713981;83;21424;-68
2021/09/05 01:22:28;;;;;;;6.97;4.12;;;;;;;5.67;78.64;99998.66;1723381;82;21093;-67
2021/09/05 01:25:12;;;;;;;7.97;4.30;;;;;;;5.63;78.72;100004.25;1705728;82;21020;-68
2021/09/05 01:27:58;;;;;;;8.65;4.75;;;;;;;5.60;78.73;100000.64;1715293;83;21044;-67
2021/09/05 01:30:35;;;;;;;9.23;4.20;;;;;;;5.58;78.78;99999.23;1699535;83;21040;-67
2021/09/05 01:33:20;;;;;;;8.80;4.25;;;;;;;5.57;78.90;100009.22;1732416;82;21034;-68
2021/09/05 01:36:05;;;;;;;10.78;4.53;;;;;;;5.58;78.98;100014.09;1707458;82;21154;-68
2021/09/05 01:38:49;;;;;;;7.58;3.70;;;;;;;5.56;79.03;100015.70;1643591;86;21040;-68
2021/09/05 01:41:34;;;;;;;5.70;3.30;;;;;;;5.54;79.01;100008.33;1710456;82;21040;-68
2021/09/05 01:44:11;;;;;;;6.75;3.92;;;;;;;5.51;79.04;100015.03;1734890;82;21467;-66
2021/09/05 01:46:45;;;;;;;;;;;;;;;5.44;79.18;100017.02;1696094;83;21060;-67
2021/09/05 01:49:25;;;;;;;7.20;3.72;;;;;;;5.42;79.17;100017.75;1715016;82;20107;-67
2021/09/05 01:52:10;;;;;;;7.05;3.25;;;;;;;5.38;79.15;100019.30;1710914;82;21106;-67
2021/09/05 01:54:48;;;;;;;7.65;3.25;;;;;;;5.35;79.07;100019.73;1698849;82;20976;-66
2021/09/05 01:57:34;;;;;;;7.75;3.37;;;;;;;5.30;79.06;100033.11;1723236;82;20940;-68
2021/09/05 02:00:10;;;;;;;7.92;3.80;;;;;;;5.23;79.19;100028.86;1710305;82;21008;-67
2021/09/05 02:02:45;;;;;;;6.30;3.57;;;;;;;5.13;79.50;100032.64;1695258;83;20968;-68
2021/09/05 02:05:13;;;;;;;6.90;4.00;;;;;;;5.10;79.65;100035.25;1690553;83;21043;-67
2021/09/05 02:07:45;;;;;;;8.25;3.87;;;;;;;5.09;79.68;100037.67;1673646;83;21448;-67
2021/09/05 02:10:33;;;;;;;8.10;3.80;;;;;;;5.07;79.72;100038.41;1714778;81;21484;-67
2021/09/05 02:13:02;;;;;;;7.85;3.75;;;;;;;5.07;79.73;100042.98;1716950;83;21008;-67
2021/09/05 02:15:33;;;;;;;6.20;3.47;;;;;;;5.06;79.77;100050.28;1705422;83;21554;-67
2021/09/05 02:18:09;;;;;;;7.72;3.67;;;;;;;5.06;79.94;100047.58;1708851;83;21499;-67
2021/09/05 02:20:38;;;;;;;6.33;3.60;;;;;;;5.06;80.17;100047.58;1709188;82;21617;-67
2021/09/05 02:23:09;;;;;;;6.78;3.35;;;;;;;5.05;80.48;100051.84;1703266;83;21597;-67
2021/09/05 02:25:54;;;;;;;5.78;3.42;;;;;;;5.05;80.63;100050.50;1718026;83;21052;-67
2021/09/05 02:28:23;;;;;;;7.37;3.05;;;;;;;5.10;80.54;100055.48;1692036;82;21059;-67
2021/09/05 02:31:08;;;;;;;6.72;3.22;;;;;;;5.12;80.44;100048.01;1699588;82;21626;-67
2021/09/05 02:33:48;;;;;;;6.58;3.20;;;;;;;5.11;80.42;100051.75;1713045;82;20975;-67
2021/09/05 02:36:28;;;;;;;6.83;3.00;;;;;;;5.12;80.38;100057.45;1716792;83;21063;-67
2021/09/05 02:39:14;;;;;;;5.97;2.80;;;;;;;5.11;80.37;100049.05;1727994;82;21070;-68
2021/09/05 02:42:00;;;;;;;5.87;2.90;;;;;;;5.09;80.34;100057.09;1704188;83;21055;-67
2021/09/05 02:44:34;;;;;;;5.83;2.47;;;;;;;5.06;80.34;100054.84;1677794;83;20995;-67
2021/09/05 02:47:12;;;;;;;5.65;2.92;;;;;;;5.04;80.34;100055.06;1649159;85;21046;-67
2021/09/05 02:49:46;;;;;;;4.58;2.42;;;;;;;5.01;80.32;100056.88;1722401;82;21015;-68
2021/09/05 02:52:16;;;;;;;4.65;2.72;;;;;;;4.98;80.35;100054.63;1725640;82;21040;-67
2021/09/05 02:54:53;;;;;;;5.80;2.98;;;;;;;4.96;80.33;100058.06;1726353;82;21542;-67
2021/09/05 02:57:38;;;;;;;6.72;2.90;;;;;;;4.93;80.32;100057.17;1721205;82;21383;-68
2021/09/05 03:00:22;;;;;;;5.28;2.50;;;;;;;4.88;80.35;100059.75;1642436;86;20982;-68
2021/09/05 03:02:51;;;;;;;5.05;2.37;;;;;;;4.80;80.50;100066.80;1701409;82;21529;-67
2021/09/05 03:05:19;;;;;;;5.42;2.80;;;;;;;4.79;80.53;100070.02;1702859;82;21478;-67
2021/09/05 03:07:50;;;;;;;6.55;2.60;;;;;;;4.77;80.55;100072.64;1708978;82;20976;-67
2021/09/05 03:10:21;;;;;;;5.08;2.62;;;;;;;4.75;80.64;100080.12;1708337;83;20996;-67
2021/09/05 03:13:02;;;;;;;5.90;2.42;;;;;;;4.71;80.70;100077.05;1709554;83;20964;-67
2021/09/05 03:15:40;;;;;;;3.95;2.58;;;;;;;4.69;80.79;100075.64;1700112;82;21090;-67
2021/09/05 03:18:10;;;;;;;4.70;2.75;;;;;;;4.68;80.84;100078.02;1706897;82;21439;-67
2021/09/05 03:20:46;;;;;;;4.78;2.42;;;;;;;4.67;80.91;100081.80;1718305;82;21138;-67
2021/09/05 03:23:20;;;;;;;5.17;2.70;;;;;;;4.66;80.94;100086.88;1711137;83;21463;-67
2021/09/05 03:25:54;;;;;;;5.25;2.50;;;;;;;4.65;80.90;100081.17;1693886;83;21083;-67
2021/09/05 03:28:28;;;;;;;4.10;2.42;;;;;;;4.65;80.94;100079.83;1707181;82;20965;-67
2021/09/05 03:31:05;;;;;;;4.22;2.27;;;;;;;4.64;80.97;100088.98;1710461;83;21554;-67
2021/09/05 03:33:40;;;;;;;5.33;2.25;;;;;;;4.62;81.03;100086.50;1706857;83;21000;-67
2021/09/05 03:36:09;;;;;;;4.62;2.33;;;;;;;4.64;81.04;100087.64;1717056;82;21546;-67
2021/09/05 03:38:43;;;;;;;5.78;2.50;;;;;;;4.67;81.08;100095.27;1703153;82;20968;-68
2021/09/05 03:41:28;;;;;;;4.92;2.42;;;;;;;4.65;81.12;100094.14;1721125;83;21122;-67
2021/09/05 03:43:56;;;;;;;5.03;2.15;;;;;;;4.64;81.36;100098.42;1670299;83;21071;-67
2021/09/05 03:46:41;;;;;;;4.47;2.37;;;;;;;4.66;81.42;100097.14;1713777;81;21437;-67
2021/09/05 03:49:10;;;;;;;5.40;2.10;;;;;;;4.73;81.39;100103.80;1698506;82;21383;-68
2021/09/05 03:51:38;;;;;;;5.17;2.08;;;;;;;4.79;81.37;100110.98;1699889;82;21836;-68
2021/09/05 03:54:04;;;;;;;;;;;;;;;4.86;81.28;100113.09;1713294;82;21003;-68
2021/09/05 03:56:31;;;;;;;3.92;2.15;;;;;;;4.91;81.23;100111.89;1701018;83;20145;-67
2021/09/05 03:59:02;;;;;;;3.95;2.10;;;;;;;4.86;81.44;100115.78;1695500;83;20960;-67
2021/09/05 04:01:29;;;;;;;3.67;1.85;;;;;;;4.91;81.49;100115.94;1717874;82;21150;-67
2021/09/05 04:03:57;;;;;;;4.72;2.05;;;;;;;5.00;81.35;100118.63;1704524;83;21513;-67
2021/09/05 04:06:25;;;;;;;3.77;2.20;;;;;;;5.07;81.28;100122.06;1700486;82;21037;-67
2021/09/05 04:08:52;;;;;;;;;;;;;;;5.14;81.24;100121.97;1702285;83;21577;-68
2021/09/05 04:11:18;;;;;;;4.83;2.40;;;;;;;5.22;81.21;100125.72;1692715;83;20126;-68
2021/09/05 04:13:45;;;;;;;5.67;2.20;;;;;;;5.24;81.27;100129.86;1704432;82;21001;-68
2021/09/05 04:16:11;;;;;;;3.70;1.87;;;;;;;5.31;81.28;100132.47;1696972;83;21027;-68
2021/09/05 04:18:37;;;;;;;;;;;;;;;5.36;81.31;100127.20;1703874;83;21000;-69
2021/09/05 04:21:04;;;;;;;5.33;3.02;;;;;;;5.49;81.16;100132.44;1687915;85;20424;-68
2021/09/05 04:23:30;;;;;;;6.72;3.58;;;;;;;5.58;80.96;100133.75;1711521;82;21026;-67
2021/09/05 04:25:57;;;;;;;7.12;2.95;;;;;;;5.68;80.62;100138.06;1728721;81;21593;-67
2021/09/05 04:28:23;;;;;;;6.70;2.98;;;;;;;5.77;80.24;100134.52;1713235;83;21069;-67
2021/09/05 04:30:51;;;;;;;5.72;2.67;;;;;;;5.84;80.02;100137.42;1732360;81;21539;-67
2021/09/05 04:33:18;;;;;;;4.17;2.30;;;;;;;5.87;79.80;100141.56;1724648;82;21557;-67
2021/09/05 04:35:44;;;;;;;4.37;2.45;;;;;;;5.95;79.56;100143.94;1694048;82;21059;-66
2021/09/05 04:38:12;;;;;;;5.80;2.27;;;;;;;6.01;79.30;100143.00;1706753;83;21558;-66
2021/09/05 04:40:38;;;;;;;3.72;2.25;;;;;;;6.11;79.24;100145.13;1687764;84;21111;-67
2021/09/05 04:43:04;;;;;;;3.10;2.10;;;;;;;6.20;79.18;100147.25;1694955;83;21073;-67
2021/09/05 04:45:31;;;;;;;3.77;2.15;;;;;;;6.30;79.24;100151.58;1705169;81;21047;-67
2021/09/05 04:47:57;;;;;;;4.85;2.50;;;;;;;6.41;79.26;100153.99;1726609;82;21063;-66
2021/09/05 04:50:24;;;;;;;6.35;2.40;;;;;;;6.53;79.06;100152.09;1695769;82;21011;-66
2021/09/05 04:52:51;;;;;;;6.35;2.83;;;;;;;6.68;78.88;100152.45;1724161;82;21016;-67
2021/09/05 04:55:17;;;;;;;4.42;2.83;;;;;;;6.83;78.75;100157.39;1705323;82;21546;-67
2021/09/05 04:57:44;;;;;;;;;;;;;;;6.96;78.70;100158.48;1721742;83;21044;-67
2021/09/05 05:00:13;;;;;;;4.45;2.47;;;;;;;7.06;78.76;100159.22;1696484;83;20169;-66
2021/09/05 05:02:39;;;;;;;2.95;1.75;;;;;;;7.17;79.09;100159.20;1699564;83;21491;-67
2021/09/05 05:05:07;;;;;;;4.05;1.87;;;;;;;7.40;78.73;100163.18;1713258;81;21007;-66
2021/09/05 05:07:33;;;;;;;3.50;1.70;;;;;;;7.59;78.26;100161.64;1721900;82;21062;-67
2021/09/05 05:10:00;;;;;;;3.83;2.00;;;;;;;7.81;78.10;100163.97;1671605;84;20995;-67
2021/09/05 05:12:26;;;;;;;4.17;1.70;;;;;;;8.02;77.18;100155.13;1703052;83;21015;-66
2021/09/05 05:14:54;;;;;;;2.58;1.55;;;;;;;8.22;76.71;100159.53;1705837;83;21004;-67
2021/09/05 05:17:22;;;;;;;3.08;1.80;;;;;;;8.54;76.46;100161.72;1722071;82;21621;-69
2021/09/05 05:19:50;;;;;;;5.08;2.15;;;;;;;8.81;75.55;100158.59;1714966;82;20999;-68
2021/09/05 05:22:18;;;;;;;3.50;1.60;;;;;;;9.05;74.73;100157.29;1729899;82;21538;-69
2021/09/05 05:24:45;;;;;;;3.05;1.55;;;;;;;9.28;74.04;100158.39;1738374;82;21023;-67
2021/09/05 05:27:12;;;;;;;2.92;1.72;;;;;;;9.70;74.71;100157.27;1710215;82;21082;-67
2021/09/05 05:29:38;;;;;;;3.27;1.52;;;;;;;10.21;73.47;100160.48;1688356;83;20999;-68
2021/09/05 05:32:06;;;;;;;3.02;1.50;;;;;;;10.71;72.88;100160.06;1723235;83;21142;-67
2021/09/05 05:34:33;;;;;;;7.35;1.72;;;;;;;11.02;70.30;100161.88;1724568;82;20988;-65
2021/09/05 05:37:02;;;;;;;4.50;1.60;;;;;;;11.14;68.96;100163.86;1700018;83;21534;-66
2021/09/05 05:39:27;;;;;;;4.45;1.72;;;;;;;11.23;68.60;100163.63;1705822;82;21491;-67
2021/09/05 05:41:53;;;;;;;;;;;;;;;11.49;68.54;100161.28;1710240;82;21047;-67
2021/09/05 05:44:20;;;;;;;2.08;1.22;;;;;;;11.71;66.74;100165.75;1705271;83;20136;-67
2021/09/05 05:46:46;;;;;;;2.95;1.40;;;;;;;11.79;66.75;100174.77;1718609;83;21047;-67
2021/09/05 05:49:14;;;;;;;5.50;1.50;;;;;;;12.04;66.31;100172.10;1722868;82;21046;-68
2021/09/05 05:51:40;;;;;;;2.72;1.40;;;;;;;12.31;65.34;100181.39;1723272;83;21067;-67
2021/09/05 05:54:07;;;;;;;2.87;1.62;;;;;;;12.57;64.93;100175.39;1718402;83;21501;-67
2021/09/05 05:56:33;;;;;;;3.35;1.60;;;;;;;12.73;64.28;100176.47;1693044;84;21636;-67
2021/09/05 05:59:00;;;;;;;2.62;1.30;;;;;;;12.85;62.89;100176.19;1698541;82;21019;-68
2021/09/05 06:01:26;;;;;;;2.55;1.40;;;;;;;12.94;62.36;100182.71;1705443;83;21031;-68
2021/09/05 06:03:55;;;;;;;3.02;1.50;;;;;;;13.18;63.08;100176.94;1719018;82;21019;-68
2021/09/05 06:06:22;;;;;;;3.52;1.42;;;;;;;13.53;62.35;100184.22;1722668;82;21983;-68
2021/09/05 06:08:48;;;;;;;2.33;1.20;;;;;;;13.81;60.96;100182.70;1718212;82;20984;-68
2021/09/05 06:11:16;;;;;;;3.22;1.27;;;;;;;13.90;60.45;100179.63;1705604;83;21051;-69
2021/09/05 06:13:43;;;;;;;3.05;1.50;;;;;;;14.09;59.33;100186.64;1715848;83;21566;-69
2021/09/05 06:16:09;;;;;;;;;;;;;;;14.24;59.35;100190.07;1722719;82;21071;-69
2021/09/05 06:18:36;;;;;;;2.42;1.17;;;;;;;14.29;57.78;100193.33;1713744;83;20116;-69
2021/09/05 06:21:04;;;;;;;3.80;1.37;;;;;;;14.21;57.48;100195.30;1701664;82;21020;-69
2021/09/05 06:23:31;;;;;;;2.15;1.20;;;;;;;14.14;58.06;100196.98;1684603;85;21056;-69
2021/09/05 06:25:57;;;;;;;;;;;;;;;14.26;57.93;100197.47;1700240;83;21114;-69
2021/09/05 06:28:23;;;;;;;3.05;1.55;;;;;;;14.58;58.09;100198.34;1704921;82;20119;-68
2021/09/05 06:30:50;;;;;;;1.90;1.30;;;;;;;14.74;57.42;100195.72;1706973;83;21637;-69
2021/09/05 06:33:16;;;;;;;;;;;;;;;15.11;56.79;100195.64;1690198;84;21087;-68
2021/09/05 06:35:42;;;;;;;3.20;1.32;;;;;;;15.27;54.47;100197.10;1703397;83;20128;-69
2021/09/05 06:38:09;;;;;;;2.50;1.20;;;;;;;15.18;55.66;100203.80;1707827;82;21031;-69
2021/09/05 06:40:35;;;;;;;;;;;;;;;15.42;54.76;100199.68;1707258;81;21004;-69
2021/09/05 06:43:03;;;;;;;3.15;1.10;;;;;;;15.48;53.74;100202.62;1706273;82;20115;-69
2021/09/05 06:45:29;;;;;;;3.37;1.90;;;;;;;15.49;54.35;100194.69;1705583;83;21095;-67
2021/09/05 06:47:55;;;;;;;5.12;2.72;;;;;;;15.69;54.10;100210.09;1677458;85;21051;-69
2021/09/05 06:50:23;;;;;;;13.68;8.35;;;;;;;15.97;53.60;100206.42;1652058;85;21012;-69
2021/09/05 06:52:49;;;;;;;;;;;;;;;16.10;51.52;100201.56;1629913;86;21062;-69
2021/09/05 06:55:15;;;;;;;4.25;2.20;;;;;;;16.13;51.20;100205.08;1645008;86;20456;-68
2021/09/05 06:57:41;;;;;;;;;;;;;;;16.14;50.17;100212.22;1723286;82;21031;-68
2021/09/05 07:00:09;;;;;;;1.72;0.90;;;;;;;16.18;48.48;100216.01;1705863;82;20117;-69
2021/09/05 07:02:36;;;;;;;1.67;0.70;;;;;;;16.14;48.33;100211.40;1696625;83;21006;-69
2021/09/05 07:05:02;;;;;;;2.02;0.70;;;;;;;16.15;47.82;100216.61;1732720;83;21035;-69
2021/09/05 07:07:29;;;;;;;2.62;0.70;;;;;;;16.24;47.71;100218.93;1710332;82;21030;-69
2021/09/05 07:09:55;;;;;;;1.55;0.70;;;;;;;16.35;46.65;100220.41;1717075;83;21000;-69
2021/09/05 07:12:22;;;;;;;1.35;0.75;;;;;;;16.52;46.72;100221.80;1703893;83;21039;-70
2021/09/05 07:14:49;;;;;;;2.58;0.50;;;;;;;16.64;45.91;100224.95;1722811;82;21042;-69
2021/09/05 07:17:17;;;;;;;2.60;0.88;;;;;;;16.64;45.48;100228.52;1723182;82;21083;-69
2021/09/05 07:19:43;;;;;;;1.87;0.50;;;;;;;16.59;44.64;100226.39;1706397;82;20983;-69
2021/09/05 07:22:09;;;;;;;;;;;;;;;16.69;43.40;100231.16;1695862;83;21076;-68
2021/09/05 07:24:36;;;;;;;1.35;0.60;;;;;;;16.60;43.36;100228.03;1704233;82;20452;-69
2021/09/05 07:27:03;;;;;;;1.67;0.50;;;;;;;16.48;42.90;100226.25;1719334;82;21102;-69
2021/09/05 07:29:30;;;;;;;1.20;0.50;;;;;;;16.43;42.53;100225.25;1706725;83;21475;-69
2021/09/05 07:31:56;;;;;;;;;;;;;;;16.35;42.74;100225.91;1725943;83;21023;-68
2021/09/05 07:34:23;;;;;;;1.45;0.60;;;;;;;16.25;43.01;100230.19;1736834;82;20528;-69
2021/09/05 07:36:50;;;;;;;1.62;0.80;;;;;;;16.24;43.50;100231.84;1738349;81;21099;-69
2021/09/05 07:39:16;;;;;;;;;;;;;;;16.50;41.99;100227.61;1706366;83;20987;-69
2021/09/05 07:41:42;;;;;;;1.42;0.80;;;;;;;16.66;42.35;100233.69;1700152;83;20202;-69
2021/09/05 07:44:09;;;;;;;1.07;0.55;;;;;;;16.64;43.36;100232.64;1678935;84;21043;-68
2021/09/05 07:46:36;;;;;;;1.30;0.60;;;;;;;16.76;42.40;100237.09;1723167;82;21063;-69
2021/09/05 07:49:02;;;;;;;1.62;0.70;;;;;;;16.86;42.50;100235.54;1721413;83;21007;-69
2021/09/05 07:51:28;;;;;;;;;;;;;;;17.07;41.51;100231.90;1698526;82;21106;-69
2021/09/05 07:53:55;;;;;;;1.10;0.60;;;;;;;17.02;38.53;100240.23;1725972;82;20132;-70
2021/09/05 07:56:22;;;;;;;1.32;0.50;;;;;;;16.82;39.65;100237.28;1723078;83;21169;-69
2021/09/05 07:58:48;;;;;;;2.37;0.70;;;;;;;16.91;39.17;100239.59;1707127;83;21023;-69
2021/09/05 08:01:15;;;;;;;1.98;0.57;;;;;;;17.02;38.94;100234.73;1723925;83;21015;-68
2021/09/05 08:03:41;;;;;;;1.20;0.70;;;;;;;17.06;37.89;100236.31;1725993;82;21101;-69
2021/09/05 08:06:08;;;;;;;2.92;0.80;;;;;;;17.06;39.69;100235.77;1720725;83;21126;-68
2021/09/05 08:08:37;;;;;;;1.90;0.85;;;;;;;17.30;38.98;100231.45;1708556;82;21016;-69
2021/09/05 08:11:04;;;;;;;1.70;0.80;;;;;;;17.43;39.11;100235.36;1719605;82;21067;-69
2021/09/05 08:13:32;;;;;;;1.67;0.70;;;;;;;17.70;39.37;100229.88;1712712;83;21149;-70
2021/09/05 08:16:01;;;;;;;1.42;0.62;;;;;;;18.01;36.92;100236.92;1713045;83;21067;-69
2021/09/05 08:18:35;;;;;;;2.52;1.05;;;;;;;18.10;36.77;100235.91;1693222;83;20988;-69
2021/09/05 08:21:02;;;;;;;1.22;0.60;;;;;;;18.30;36.90;100240.95;1694403;82;21075;-69
2021/09/05 08:23:28;;;;;;;1.07;0.60;;;;;;;18.24;37.09;100232.55;1705018;83;21025;-69
2021/09/05 08:25:54;;;;;;;1.60;0.70;;;;;;;18.20;35.74;100230.72;1693659;83;21476;-68
2021/09/05 08:28:21;;;;;;;2.83;0.85;;;;;;;18.20;36.61;100222.45;1690328;83;21016;-68
2021/09/05 08:30:48;;;;;;;2.17;0.60;;;;;;;18.24;36.80;100241.38;1727196;81;21031;-68
2021/09/05 08:33:16;;;;;;;1.95;0.80;;;;;;;18.14;36.87;100244.37;1699760;82;20997;-68
2021/09/05 08:35:43;;;;;;;0.82;0.50;;;;;;;18.08;36.94;100239.52;1718189;82;21036;-69
2021/09/05 08:38:09;;;;;;;2.50;0.88;;;;;;;18.12;37.34;100246.05;1700568;83;21000;-68
2021/09/05 08:40:45;;;;;;;1.50;0.60;;;;;;;18.35;36.30;100248.30;1708429;82;21032;-71
2021/09/05 08:43:12;;;;;;;1.65;0.90;;;;;;;18.34;36.43;100246.09;1711349;82;21031;-68
2021/09/05 08:45:39;;;;;;;4.75;0.80;;;;;;;18.22;35.48;100247.19;1729860;82;21067;-69
2021/09/05 08:48:05;;;;;;;1.07;0.50;;;;;;;18.25;37.59;100251.26;1706456;83;20995;-69
2021/09/05 08:50:33;;;;;;;1.82;0.62;;;;;;;18.60;37.23;100252.43;1732459;82;21027;-69
2021/09/05 08:53:00;;;;;;;1.62;0.70;;;;;;;18.84;36.71;100247.41;1715396;82;21086;-69
2021/09/05 08:55:26;;;;;;;1.57;0.65;;;;;;;19.24;36.32;100254.63;1688163;83;21575;-68
2021/09/05 08:57:54;;;;;;;2.15;0.53;;;;;;;19.39;35.13;100251.47;1695797;83;21399;-68
2021/09/05 09:00:21;;;;;;;1.27;0.50;;;;;;;18.97;33.47;100260.87;1717293;82;21030;-69
2021/09/05 09:02:50;;;;;;;1.62;0.80;;;;;;;18.34;34.63;100258.50;1719575;82;21034;-68
2021/09/05 09:05:29;;;;;;;1.57;0.82;;;;;;;17.91;35.47;100257.25;1718088;82;20976;-68
2021/09/05 09:08:00;;;;;;;9.48;4.50;;;;;;;17.56;35.74;100257.41;1702241;82;21008;-68
2021/09/05 09:10:27;;;;;;;2.98;1.20;;;;;;;17.34;37.67;100251.19;1702820;83;21071;-69
2021/09/05 09:12:55;;;;;;;1.65;0.80;;;;;;;17.47;38.74;100244.61;1713665;82;21106;-67
2021/09/05 09:15:31;;;;;;;1.80;0.80;;;;;;;17.78;37.55;100243.73;1687539;84;21063;-69
2021/09/05 09:18:03;;;;;;;1.32;0.57;;;;;;;17.69;37.81;100245.58;1702979;83;21063;-69
2021/09/05 09:20:41;;;;;;;1.37;0.60;;;;;;;17.55;36.56;100247.48;1704658;83;21123;-69
2021/09/05 09:23:20;;;;;;;2.95;1.00;;;;;;;17.40;37.58;100236.77;1709082;82;21023;-68
2021/09/05 09:26:06;;;;;;;2.40;0.90;;;;;;;17.47;38.35;100230.85;1708877;82;21027;-69
2021/09/05 09:28:40;;;;;;;3.37;1.37;;;;;;;17.82;38.22;100233.73;1715225;82;21070;-68
2021/09/05 09:31:27;;;;;;;1.82;0.65;;;;;;;18.14;38.39;100228.62;1700817;82;21025;-69
2021/09/05 09:33:55;;;;;;;1.62;0.70;;;;;;;18.51;38.27;100234.98;1707890;83;21011;-69
2021/09/05 09:36:26;;;;;;;1.45;0.70;;;;;;;18.63;36.94;100238.02;1716752;82;21011;-69
2021/09/05 09:39:00;;;;;;;2.92;0.80;;;;;;;18.33;35.88;100243.08;1717539;83;21011;-68
2021/09/05 09:41:37;;;;;;;3.00;0.78;;;;;;;17.80;36.87;100252.52;1707392;82;21041;-68
2021/09/05 09:44:06;;;;;;;3.90;0.80;;;;;;;17.25;38.89;100277.77;1723852;82;21523;-69
2021/09/05 09:46:38;;;;;;;3.33;0.78;;;;;;;16.45;42.08;100305.98;1726629;82;21043;-70
2021/09/05 09:49:12;;;;;;;2.08;0.70;;;;;;;15.40;46.08;100316.58;1711868;82;21074;-67
2021/09/05 09:51:40;;;;;;;3.25;0.70;;;;;;;14.41;49.36;100310.24;1712978;83;21039;-68
2021/09/05 09:54:08;;;;;;;2.70;1.62;;;;;;;13.91;51.40;100291.57;1681005;83;21052;-68
2021/09/05 09:56:34;;;;;;;5.47;2.52;;;;;;;13.74;53.21;100297.11;1671594;84;21593;-68
2021/09/05 09:59:07;;;;;;;6.85;3.12;;;;;;;13.72;55.82;100306.13;1731842;83;21038;-68
2021/09/05 10:01:33;;;;;;;393.30;219.50;;;;;;;13.70;57.12;100301.50;1690792;83;21059;-68
2021/09/05 10:04:01;;;;;;;174.97;100.95;;;;;;;13.78;58.02;100302.30;1689512;82;21574;-68
2021/09/05 10:06:31;;;;;;;130.55;73.40;;;;;;;13.87;59.11;100299.25;1716096;82;21094;-68
2021/09/05 10:09:06;;;;;;;31.40;19.15;;;;;;;14.02;60.25;100295.63;1700932;82;21031;-68
2021/09/05 10:11:35;;;;;;;35.65;19.25;;;;;;;14.20;60.59;100293.63;1709218;81;21063;-67
2021/09/05 10:14:01;;;;;;;63.83;29.02;;;;;;;14.36;60.54;100297.39;1717916;83;21063;-69
2021/09/05 10:16:29;;;;;;;16.62;8.20;;;;;;;14.50;60.34;100294.83;1712905;83;21103;-69
2021/09/05 10:19:03;;;;;;;9.63;5.05;;;;;;;14.68;60.64;100292.79;1694721;83;21024;-66
2021/09/05 10:21:30;;;;;;;8.25;4.03;;;;;;;14.94;58.58;100290.68;1709048;82;21036;-69
2021/09/05 10:23:58;;;;;;;9.48;4.00;;;;;;;15.20;57.58;100290.70;1692079;82;21099;-69
2021/09/05 10:26:26;;;;;;;9.55;3.50;;;;;;;15.35;57.05;100289.19;1700493;83;21075;-69
2021/09/05 10:28:58;;;;;;;2.30;1.10;;;;;;;15.44;57.88;100294.29;1699655;83;20996;-70
2021/09/05 10:31:30;;;;;;;1.60;0.70;;;;;;;15.45;54.54;100290.45;1733633;81;21043;-70
2021/09/05 10:33:57;;;;;;;1.52;0.72;;;;;;;15.31;52.99;100285.94;1728486;82;20971;-67
2021/09/05 10:36:26;;;;;;;3.33;0.90;;;;;;;15.11;52.73;100291.62;1678088;85;21124;-69
2021/09/05 10:39:05;;;;;;;2.47;1.20;;;;;;;14.91;54.05;100287.94;1699391;83;21039;-69
2021/09/05 10:41:49;;;;;;;2.62;0.90;;;;;;;14.94;54.40;100289.31;1728555;81;21028;-69
2021/09/05 10:44:16;;;;;;;3.17;0.70;;;;;;;15.04;53.92;100290.59;1710696;83;21578;-70
2021/09/05 10:46:49;;;;;;;1.80;0.80;;;;;;;15.09;50.84;100280.92;1717866;83;21055;-70
2021/09/05 10:49:16;;;;;;;2.20;0.82;;;;;;;15.12;51.20;100285.04;1713091;82;21079;-69
2021/09/05 10:51:47;;;;;;;1.98;0.80;;;;;;;15.20;51.50;100281.09;1745566;81;21071;-70
2021/09/05 10:54:26;;;;;;;1.30;0.60;;;;;;;15.38;52.17;100276.80;1727116;82;21063;-71
2021/09/05 10:56:55;;;;;;;1.47;0.60;;;;;;;15.64;50.57;100276.02;1715473;83;21102;-70
2021/09/05 10:59:22;;;;;;;1.07;0.50;;;;;;;15.87;48.80;100269.12;1703704;82;21019;-71
2021/09/05 11:01:56;;;;;;;1.50;0.60;;;;;;;16.11;49.55;100261.43;1694703;82;21035;-68
2021/09/05 11:04:43;;;;;;;2.05;0.50;;;;;;;16.30;47.26;100271.30;1717771;83;21114;-68
2021/09/05 11:07:11;;;;;;;4.15;0.68;;;;;;;16.40;46.78;100274.48;1693872;82;21043;-68
2021/09/05 11:09:43;;;;;;;2.77;1.20;;;;;;;16.25;45.86;100283.75;1698088;83;21051;-68
2021/09/05 11:12:37;;;;;;;4.65;1.17;;;;;;;16.05;46.39;100283.22;1701036;82;21122;-68
2021/09/05 11:15:10;;;;;;;2.10;0.85;;;;;;;15.81;45.64;100286.78;1710670;83;21070;-68
2021/09/05 11:17:39;;;;;;;2.60;0.95;;;;;;;15.43;46.44;100288.56;1725637;83;21032;-69
2021/09/05 11:23:05;;;;;;;4.72;3.12;;;;;;;14.47;50.52;100291.84;1819369;79;23419;-69
2021/09/05 11:25:39;;;;;;;4.28;1.90;;;;;;;14.11;52.70;100292.02;1791487;79;21058;-69
2021/09/05 11:28:09;;;;;;;3.02;1.45;;;;;;;13.86;54.38;100287.47;1786917;80;21518;-69
2021/09/05 11:30:39;;;;;;;4.87;1.92;;;;;;;13.76;55.85;100284.78;1729111;81;21061;-68
2021/09/05 11:33:11;;;;;;;11.90;7.33;;;;;;;13.70;58.34;100285.08;1755388;80;21020;-68
2021/09/05 11:35:49;;;;;;;26.82;19.10;;;;;;;13.80;59.23;100278.20;1754737;82;21127;-68
2021/09/05 11:38:17;;;;;;;5.53;3.83;;;;;;;14.02;59.10;100280.57;1769230;80;21019;-68
2021/09/05 11:40:51;;;;;;;7.65;3.42;;;;;;;14.22;58.17;100283.20;1782186;80;21054;-68
2021/09/05 11:43:35;;;;;;;6.50;4.25;;;;;;;14.32;58.18;100271.63;1762231;80;20987;-68
2021/09/05 11:46:13;;;;;;;7.33;5.12;;;;;;;14.54;57.76;100273.16;1761906;81;21617;-68
2021/09/05 11:48:56;;;;;;;1.87;0.90;;;;;;;14.78;56.77;100269.96;1769208;80;21529;-69
2021/09/05 11:51:24;;;;;;;4.78;2.40;;;;;;;14.98;50.98;100264.88;1781390;79;21062;-69